Terminal Aerodrome Forecast
Issued by NWS Wakefield, VA

Home | Current Version | Previous Version | Text Only | Print | Product List | Glossary On
Versions: 1 2 3 4 5 6 7 8 9 10 11 12 13 14 15 16 17 18 19 20 21
000
FTUS41 KAKQ 281700
TAFORF
TAF
KORF 281736Z 2818/2918 36010G18KT P6SM SCT040
     FM282000 35008KT P6SM SCT040
     FM282200 34004KT P6SM SKC
     FM290000 VRB03KT P6SM SCT200
     FM291400 19005KT P6SM SCT200=

USA.gov is the U.S. government's official web portal to all federal, state and local government web resources and services.